Toluca, MEX, Mexico
Current Conditions -  °F | °C
As of 1:42 PM on Wednesday 26 Nov 2014 (Local Time) from MMTO Reporting Station
Clear Clear  
Wind Chill: 66°   Ceiling: Unl
Heat Index: 66°   Visibility: 10mi
Dew Point:   Wind: 5mph
Humidity: 7%   Direction: 20°NNE
Pressure: 30.4"   Gusts: NA
Location:  19.29°N, 99.67°W
Report Text: MMTO 261942Z 02004KT 10SM SKC 19/M18 A3040
Loading
Personal Weather Stations






























Interactive Weather Map New forecast layout! Learn more

10-Day Weather Forecast

Advertisements
Track Severe Weather on mobile